sensor_id;sensor_type;location;lat;lon;timestamp;P1;P2;P0
43479;PMS5003;29067;35.492;-97.520;2023-07-31T00:01:03;47;43;
43479;PMS5003;29067;35.492;-97.520;2023-07-31T00:03:32;34;28;
43479;PMS5003;29067;35.492;-97.520;2023-07-31T00:05:59;42;39;
43479;PMS5003;29067;35.492;-97.520;2023-07-31T00:08:28;40;36;
43479;PMS5003;29067;35.492;-97.520;2023-07-31T00:10:56;41;36;
43479;PMS5003;29067;35.492;-97.520;2023-07-31T00:13:24;37;34;
43479;PMS5003;29067;35.492;-97.520;2023-07-31T00:15:52;26;22;
43479;PMS5003;29067;35.492;-97.520;2023-07-31T00:18:20;30;24;
43479;PMS5003;29067;35.492;-97.520;2023-07-31T00:20:49;63;60;
43479;PMS5003;29067;35.492;-97.520;2023-07-31T00:23:17;40;35;
43479;PMS5003;29067;35.492;-97.520;2023-07-31T00:25:52;39;36;
43479;PMS5003;29067;35.492;-97.520;2023-07-31T00:28:20;106;102;
43479;PMS5003;29067;35.492;-97.520;2023-07-31T00:30:48;62;56;
43479;PMS5003;29067;35.492;-97.520;2023-07-31T00:33:16;55;51;
43479;PMS5003;29067;35.492;-97.520;2023-07-31T00:35:44;30;24;
43479;PMS5003;29067;35.492;-97.520;2023-07-31T00:38:13;27;26;
43479;PMS5003;29067;35.492;-97.520;2023-07-31T00:40:41;24;21;
43479;PMS5003;29067;35.492;-97.520;2023-07-31T00:43:09;14;13;
43479;PMS5003;29067;35.492;-97.520;2023-07-31T00:45:37;18;15;
43479;PMS5003;29067;35.492;-97.520;2023-07-31T00:48:05;14;14;
43479;PMS5003;29067;35.492;-97.520;2023-07-31T00:50:34;12;11;
43479;PMS5003;29067;35.492;-97.520;2023-07-31T00:53:02;14;13;
43479;PMS5003;29067;35.492;-97.520;2023-07-31T00:55:30;18;16;
43479;PMS5003;29067;35.492;-97.520;2023-07-31T00:57:58;19;18;
43479;PMS5003;29067;35.492;-97.520;2023-07-31T01:00:31;13;11;
43479;PMS5003;29067;35.492;-97.520;2023-07-31T01:02:59;10;9;
43479;PMS5003;29067;35.492;-97.520;2023-07-31T01:05:32;11;11;
43479;PMS5003;29067;35.492;-97.520;2023-07-31T01:08:08;12;11;
43479;PMS5003;29067;35.492;-97.520;2023-07-31T01:10:47;12;12;
43479;PMS5003;29067;35.492;-97.520;2023-07-31T01:13:21;12;10;
43479;PMS5003;29067;35.492;-97.520;2023-07-31T01:15:50;10;10;
43479;PMS5003;29067;35.492;-97.520;2023-07-31T01:18:18;13;12;
43479;PMS5003;29067;35.492;-97.520;2023-07-31T01:20:47;10;10;
43479;PMS5003;29067;35.492;-97.520;2023-07-31T01:23:26;11;10;
43479;PMS5003;29067;35.492;-97.520;2023-07-31T01:26:11;10;10;
43479;PMS5003;29067;35.492;-97.520;2023-07-31T01:28:44;10;10;
43479;PMS5003;29067;35.492;-97.520;2023-07-31T01:31:23;11;11;
43479;PMS5003;29067;35.492;-97.520;2023-07-31T01:33:53;13;11;
43479;PMS5003;29067;35.492;-97.520;2023-07-31T01:36:24;12;11;
43479;PMS5003;29067;35.492;-97.520;2023-07-31T01:38:52;12;11;
43479;PMS5003;29067;35.492;-97.520;2023-07-31T01:41:31;15;11;
43479;PMS5003;29067;35.492;-97.520;2023-07-31T01:44:05;13;13;
43479;PMS5003;29067;35.492;-97.520;2023-07-31T01:46:33;11;10;
43479;PMS5003;29067;35.492;-97.520;2023-07-31T01:49:02;11;11;
43479;PMS5003;29067;35.492;-97.520;2023-07-31T01:51:30;13;12;
43479;PMS5003;29067;35.492;-97.520;2023-07-31T01:53:58;9;8;
43479;PMS5003;29067;35.492;-97.520;2023-07-31T01:56:26;11;11;
43479;PMS5003;29067;35.492;-97.520;2023-07-31T01:58:55;11;9;
43479;PMS5003;29067;35.492;-97.520;2023-07-31T02:01:23;14;11;
43479;PMS5003;29067;35.492;-97.520;2023-07-31T02:03:52;13;12;
43479;PMS5003;29067;35.492;-97.520;2023-07-31T02:06:21;12;11;
43479;PMS5003;29067;35.492;-97.520;2023-07-31T02:08:54;12;10;
43479;PMS5003;29067;35.492;-97.520;2023-07-31T02:11:22;12;10;
43479;PMS5003;29067;35.492;-97.520;2023-07-31T02:13:51;11;10;
43479;PMS5003;29067;35.492;-97.520;2023-07-31T02:16:19;10;10;
43479;PMS5003;29067;35.492;-97.520;2023-07-31T02:18:47;13;10;
43479;PMS5003;29067;35.492;-97.520;2023-07-31T02:21:16;12;10;
43479;PMS5003;29067;35.492;-97.520;2023-07-31T02:23:44;12;11;
43479;PMS5003;29067;35.492;-97.520;2023-07-31T02:26:14;14;13;
43479;PMS5003;29067;35.492;-97.520;2023-07-31T02:28:52;12;12;
43479;PMS5003;29067;35.492;-97.520;2023-07-31T02:31:20;12;9;
43479;PMS5003;29067;35.492;-97.520;2023-07-31T02:33:48;13;11;
43479;PMS5003;29067;35.492;-97.520;2023-07-31T02:36:22;9;9;
43479;PMS5003;29067;35.492;-97.520;2023-07-31T02:38:56;12;10;
43479;PMS5003;29067;35.492;-97.520;2023-07-31T02:41:29;10;9;
43479;PMS5003;29067;35.492;-97.520;2023-07-31T02:43:58;11;10;
43479;PMS5003;29067;35.492;-97.520;2023-07-31T02:46:31;11;10;
43479;PMS5003;29067;35.492;-97.520;2023-07-31T02:49:00;13;11;
43479;PMS5003;29067;35.492;-97.520;2023-07-31T02:51:28;11;10;
43479;PMS5003;29067;35.492;-97.520;2023-07-31T02:53:56;10;10;
43479;PMS5003;29067;35.492;-97.520;2023-07-31T02:56:30;13;11;
43479;PMS5003;29067;35.492;-97.520;2023-07-31T02:58:58;10;10;
43479;PMS5003;29067;35.492;-97.520;2023-07-31T03:01:26;12;12;
43479;PMS5003;29067;35.492;-97.520;2023-07-31T03:03:56;10;10;
43479;PMS5003;29067;35.492;-97.520;2023-07-31T03:06:25;10;9;
43479;PMS5003;29067;35.492;-97.520;2023-07-31T03:08:53;10;10;
43479;PMS5003;29067;35.492;-97.520;2023-07-31T03:11:21;14;13;
43479;PMS5003;29067;35.492;-97.520;2023-07-31T03:13:49;12;10;
43479;PMS5003;29067;35.492;-97.520;2023-07-31T03:16:18;10;9;
43479;PMS5003;29067;35.492;-97.520;2023-07-31T03:18:46;10;9;
43479;PMS5003;29067;35.492;-97.520;2023-07-31T03:21:14;11;10;
43479;PMS5003;29067;35.492;-97.520;2023-07-31T03:23:43;14;12;
43479;PMS5003;29067;35.492;-97.520;2023-07-31T03:26:11;10;10;
43479;PMS5003;29067;35.492;-97.520;2023-07-31T03:28:39;13;11;
43479;PMS5003;29067;35.492;-97.520;2023-07-31T03:31:08;13;11;
43479;PMS5003;29067;35.492;-97.520;2023-07-31T03:33:36;14;12;
43479;PMS5003;29067;35.492;-97.520;2023-07-31T03:36:04;13;11;
43479;PMS5003;29067;35.492;-97.520;2023-07-31T03:38:33;11;10;
43479;PMS5003;29067;35.492;-97.520;2023-07-31T03:41:08;9;9;
43479;PMS5003;29067;35.492;-97.520;2023-07-31T03:43:36;14;11;
43479;PMS5003;29067;35.492;-97.520;2023-07-31T03:46:04;11;11;
43479;PMS5003;29067;35.492;-97.520;2023-07-31T03:48:32;11;10;
43479;PMS5003;29067;35.492;-97.520;2023-07-31T03:51:02;11;10;
43479;PMS5003;29067;35.492;-97.520;2023-07-31T03:53:35;11;7;
43479;PMS5003;29067;35.492;-97.520;2023-07-31T03:56:04;9;8;
43479;PMS5003;29067;35.492;-97.520;2023-07-31T03:58:33;11;10;
43479;PMS5003;29067;35.492;-97.520;2023-07-31T04:01:01;11;10;
43479;PMS5003;29067;35.492;-97.520;2023-07-31T04:03:31;13;12;
43479;PMS5003;29067;35.492;-97.520;2023-07-31T04:05:59;13;11;
43479;PMS5003;29067;35.492;-97.520;2023-07-31T04:08:27;12;12;
43479;PMS5003;29067;35.492;-97.520;2023-07-31T04:10:55;13;12;
43479;PMS5003;29067;35.492;-97.520;2023-07-31T04:13:24;10;9;
43479;PMS5003;29067;35.492;-97.520;2023-07-31T04:15:52;10;10;
43479;PMS5003;29067;35.492;-97.520;2023-07-31T04:18:20;13;11;
43479;PMS5003;29067;35.492;-97.520;2023-07-31T04:20:48;11;10;
43479;PMS5003;29067;35.492;-97.520;2023-07-31T04:23:17;12;10;
43479;PMS5003;29067;35.492;-97.520;2023-07-31T04:25:45;12;9;
43479;PMS5003;29067;35.492;-97.520;2023-07-31T04:28:13;12;11;
43479;PMS5003;29067;35.492;-97.520;2023-07-31T04:30:41;12;11;
43479;PMS5003;29067;35.492;-97.520;2023-07-31T04:33:10;12;10;
43479;PMS5003;29067;35.492;-97.520;2023-07-31T04:35:38;13;11;
43479;PMS5003;29067;35.492;-97.520;2023-07-31T04:38:06;11;10;
43479;PMS5003;29067;35.492;-97.520;2023-07-31T04:40:40;10;9;
43479;PMS5003;29067;35.492;-97.520;2023-07-31T04:43:08;13;11;
43479;PMS5003;29067;35.492;-97.520;2023-07-31T04:45:36;9;9;
43479;PMS5003;29067;35.492;-97.520;2023-07-31T04:48:10;9;8;
43479;PMS5003;29067;35.492;-97.520;2023-07-31T04:50:43;12;10;
43479;PMS5003;29067;35.492;-97.520;2023-07-31T04:53:12;12;10;
43479;PMS5003;29067;35.492;-97.520;2023-07-31T04:55:40;9;9;
43479;PMS5003;29067;35.492;-97.520;2023-07-31T04:58:08;9;9;
43479;PMS5003;29067;35.492;-97.520;2023-07-31T05:00:37;14;13;
43479;PMS5003;29067;35.492;-97.520;2023-07-31T05:03:05;11;11;
43479;PMS5003;29067;35.492;-97.520;2023-07-31T05:05:39;12;11;
43479;PMS5003;29067;35.492;-97.520;2023-07-31T05:08:07;14;10;
43479;PMS5003;29067;35.492;-97.520;2023-07-31T05:10:35;13;11;
43479;PMS5003;29067;35.492;-97.520;2023-07-31T05:13:03;11;11;
43479;PMS5003;29067;35.492;-97.520;2023-07-31T05:15:32;11;9;
43479;PMS5003;29067;35.492;-97.520;2023-07-31T05:17:59;12;10;
43479;PMS5003;29067;35.492;-97.520;2023-07-31T05:20:28;12;10;
43479;PMS5003;29067;35.492;-97.520;2023-07-31T05:22:56;17;11;
43479;PMS5003;29067;35.492;-97.520;2023-07-31T05:25:24;13;11;
43479;PMS5003;29067;35.492;-97.520;2023-07-31T05:27:52;14;11;
43479;PMS5003;29067;35.492;-97.520;2023-07-31T05:30:21;12;11;
43479;PMS5003;29067;35.492;-97.520;2023-07-31T05:32:49;10;10;
43479;PMS5003;29067;35.492;-97.520;2023-07-31T05:35:17;12;10;
43479;PMS5003;29067;35.492;-97.520;2023-07-31T05:37:56;14;12;
43479;PMS5003;29067;35.492;-97.520;2023-07-31T05:40:32;12;11;
43479;PMS5003;29067;35.492;-97.520;2023-07-31T05:43:00;14;14;
43479;PMS5003;29067;35.492;-97.520;2023-07-31T05:45:28;11;11;
43479;PMS5003;29067;35.492;-97.520;2023-07-31T05:47:57;15;14;
43479;PMS5003;29067;35.492;-97.520;2023-07-31T05:50:25;13;12;
43479;PMS5003;29067;35.492;-97.520;2023-07-31T05:52:53;15;14;
43479;PMS5003;29067;35.492;-97.520;2023-07-31T05:55:22;14;14;
43479;PMS5003;29067;35.492;-97.520;2023-07-31T05:57:56;16;15;
43479;PMS5003;29067;35.492;-97.520;2023-07-31T06:00:24;18;16;
43479;PMS5003;29067;35.492;-97.520;2023-07-31T06:02:53;15;14;
43479;PMS5003;29067;35.492;-97.520;2023-07-31T06:05:21;15;14;
43479;PMS5003;29067;35.492;-97.520;2023-07-31T06:07:49;21;17;
43479;PMS5003;29067;35.492;-97.520;2023-07-31T06:10:18;17;16;
43479;PMS5003;29067;35.492;-97.520;2023-07-31T06:12:46;14;11;
43479;PMS5003;29067;35.492;-97.520;2023-07-31T06:15:14;12;11;
43479;PMS5003;29067;35.492;-97.520;2023-07-31T06:17:42;18;14;
43479;PMS5003;29067;35.492;-97.520;2023-07-31T06:20:10;14;12;
43479;PMS5003;29067;35.492;-97.520;2023-07-31T06:22:39;15;14;
43479;PMS5003;29067;35.492;-97.520;2023-07-31T06:25:07;15;13;
43479;PMS5003;29067;35.492;-97.520;2023-07-31T06:27:35;16;15;
43479;PMS5003;29067;35.492;-97.520;2023-07-31T06:30:04;17;16;
43479;PMS5003;29067;35.492;-97.520;2023-07-31T06:32:33;21;19;
43479;PMS5003;29067;35.492;-97.520;2023-07-31T06:35:01;11;10;
43479;PMS5003;29067;35.492;-97.520;2023-07-31T06:37:29;16;15;
43479;PMS5003;29067;35.492;-97.520;2023-07-31T06:39:57;15;9;
43479;PMS5003;29067;35.492;-97.520;2023-07-31T06:42:25;21;19;
43479;PMS5003;29067;35.492;-97.520;2023-07-31T06:44:54;22;21;
43479;PMS5003;29067;35.492;-97.520;2023-07-31T06:47:22;28;26;
43479;PMS5003;29067;35.492;-97.520;2023-07-31T06:49:50;24;23;
43479;PMS5003;29067;35.492;-97.520;2023-07-31T06:52:18;20;17;
43479;PMS5003;29067;35.492;-97.520;2023-07-31T06:54:59;31;28;
43479;PMS5003;29067;35.492;-97.520;2023-07-31T06:57:29;42;40;
43479;PMS5003;29067;35.492;-97.520;2023-07-31T06:59:57;27;26;
43479;PMS5003;29067;35.492;-97.520;2023-07-31T07:02:25;46;44;
43479;PMS5003;29067;35.492;-97.520;2023-07-31T07:04:53;46;43;
43479;PMS5003;29067;35.492;-97.520;2023-07-31T07:07:21;48;48;
43479;PMS5003;29067;35.492;-97.520;2023-07-31T07:09:49;52;50;
43479;PMS5003;29067;35.492;-97.520;2023-07-31T07:12:17;52;50;
43479;PMS5003;29067;35.492;-97.520;2023-07-31T07:14:45;41;41;
43479;PMS5003;29067;35.492;-97.520;2023-07-31T07:17:14;43;43;
43479;PMS5003;29067;35.492;-97.520;2023-07-31T07:19:42;52;52;
43479;PMS5003;29067;35.492;-97.520;2023-07-31T07:22:10;44;44;
43479;PMS5003;29067;35.492;-97.520;2023-07-31T07:24:38;53;53;
43479;PMS5003;29067;35.492;-97.520;2023-07-31T07:27:06;39;38;
43479;PMS5003;29067;35.492;-97.520;2023-07-31T07:29:34;36;35;
43479;PMS5003;29067;35.492;-97.520;2023-07-31T07:32:04;55;55;
43479;PMS5003;29067;35.492;-97.520;2023-07-31T07:34:32;32;29;
43479;PMS5003;29067;35.492;-97.520;2023-07-31T07:37:00;34;33;
43479;PMS5003;29067;35.492;-97.520;2023-07-31T07:39:29;17;16;
43479;PMS5003;29067;35.492;-97.520;2023-07-31T07:41:57;13;12;
43479;PMS5003;29067;35.492;-97.520;2023-07-31T07:44:26;28;21;
43479;PMS5003;29067;35.492;-97.520;2023-07-31T07:46:53;25;24;
43479;PMS5003;29067;35.492;-97.520;2023-07-31T07:49:21;46;46;
43479;PMS5003;29067;35.492;-97.520;2023-07-31T07:51:49;29;24;
43479;PMS5003;29067;35.492;-97.520;2023-07-31T07:54:18;21;20;
43479;PMS5003;29067;35.492;-97.520;2023-07-31T07:56:46;14;14;
43479;PMS5003;29067;35.492;-97.520;2023-07-31T07:59:14;11;10;
43479;PMS5003;29067;35.492;-97.520;2023-07-31T08:01:42;12;11;
43479;PMS5003;29067;35.492;-97.520;2023-07-31T08:04:11;8;8;
43479;PMS5003;29067;35.492;-97.520;2023-07-31T08:06:39;12;11;
43479;PMS5003;29067;35.492;-97.520;2023-07-31T08:09:07;12;12;
43479;PMS5003;29067;35.492;-97.520;2023-07-31T08:11:35;12;11;
43479;PMS5003;29067;35.492;-97.520;2023-07-31T08:14:03;12;11;
43479;PMS5003;29067;35.492;-97.520;2023-07-31T08:16:32;15;12;
43479;PMS5003;29067;35.492;-97.520;2023-07-31T08:19:00;14;12;
43479;PMS5003;29067;35.492;-97.520;2023-07-31T08:21:28;11;9;
43479;PMS5003;29067;35.492;-97.520;2023-07-31T08:23:56;12;11;
43479;PMS5003;29067;35.492;-97.520;2023-07-31T08:26:25;12;12;
43479;PMS5003;29067;35.492;-97.520;2023-07-31T08:28:53;13;12;
43479;PMS5003;29067;35.492;-97.520;2023-07-31T08:31:21;19;14;
43479;PMS5003;29067;35.492;-97.520;2023-07-31T08:33:49;19;15;
43479;PMS5003;29067;35.492;-97.520;2023-07-31T08:36:18;15;14;
43479;PMS5003;29067;35.492;-97.520;2023-07-31T08:38:46;11;11;
43479;PMS5003;29067;35.492;-97.520;2023-07-31T08:41:14;16;13;
43479;PMS5003;29067;35.492;-97.520;2023-07-31T08:43:42;16;13;
43479;PMS5003;29067;35.492;-97.520;2023-07-31T08:46:12;12;12;
43479;PMS5003;29067;35.492;-97.520;2023-07-31T08:48:42;14;13;
43479;PMS5003;29067;35.492;-97.520;2023-07-31T08:51:10;13;12;
43479;PMS5003;29067;35.492;-97.520;2023-07-31T08:53:41;15;14;
43479;PMS5003;29067;35.492;-97.520;2023-07-31T08:56:10;12;11;
43479;PMS5003;29067;35.492;-97.520;2023-07-31T08:58:40;13;11;
43479;PMS5003;29067;35.492;-97.520;2023-07-31T09:01:08;9;9;
43479;PMS5003;29067;35.492;-97.520;2023-07-31T09:03:37;14;11;
43479;PMS5003;29067;35.492;-97.520;2023-07-31T09:06:07;13;11;
43479;PMS5003;29067;35.492;-97.520;2023-07-31T09:08:35;11;10;
43479;PMS5003;29067;35.492;-97.520;2023-07-31T09:11:08;16;14;
43479;PMS5003;29067;35.492;-97.520;2023-07-31T09:13:37;11;11;
43479;PMS5003;29067;35.492;-97.520;2023-07-31T09:16:07;14;12;
43479;PMS5003;29067;35.492;-97.520;2023-07-31T09:18:43;13;12;
43479;PMS5003;29067;35.492;-97.520;2023-07-31T09:21:21;11;10;
43479;PMS5003;29067;35.492;-97.520;2023-07-31T09:23:49;14;12;
43479;PMS5003;29067;35.492;-97.520;2023-07-31T09:26:28;15;15;
43479;PMS5003;29067;35.492;-97.520;2023-07-31T09:28:57;15;13;
43479;PMS5003;29067;35.492;-97.520;2023-07-31T09:31:33;13;12;
43479;PMS5003;29067;35.492;-97.520;2023-07-31T09:34:05;16;13;
43479;PMS5003;29067;35.492;-97.520;2023-07-31T09:36:39;17;15;
43479;PMS5003;29067;35.492;-97.520;2023-07-31T09:39:09;13;11;
43479;PMS5003;29067;35.492;-97.520;2023-07-31T09:41:37;14;11;
43479;PMS5003;29067;35.492;-97.520;2023-07-31T09:44:06;13;13;
43479;PMS5003;29067;35.492;-97.520;2023-07-31T09:46:35;13;12;
43479;PMS5003;29067;35.492;-97.520;2023-07-31T09:49:06;14;13;
43479;PMS5003;29067;35.492;-97.520;2023-07-31T09:51:34;13;11;
43479;PMS5003;29067;35.492;-97.520;2023-07-31T09:54:04;15;12;
43479;PMS5003;29067;35.492;-97.520;2023-07-31T09:56:42;14;12;
43479;PMS5003;29067;35.492;-97.520;2023-07-31T09:59:12;12;11;
43479;PMS5003;29067;35.492;-97.520;2023-07-31T10:01:42;13;11;
43479;PMS5003;29067;35.492;-97.520;2023-07-31T10:04:17;15;14;
43479;PMS5003;29067;35.492;-97.520;2023-07-31T10:06:47;14;13;
43479;PMS5003;29067;35.492;-97.520;2023-07-31T10:09:17;17;16;
43479;PMS5003;29067;35.492;-97.520;2023-07-31T10:11:50;12;10;
43479;PMS5003;29067;35.492;-97.520;2023-07-31T10:14:23;12;11;
43479;PMS5003;29067;35.492;-97.520;2023-07-31T10:16:53;8;8;
43479;PMS5003;29067;35.492;-97.520;2023-07-31T10:19:23;14;13;
43479;PMS5003;29067;35.492;-97.520;2023-07-31T10:21:53;15;14;
43479;PMS5003;29067;35.492;-97.520;2023-07-31T10:24:22;13;13;
43479;PMS5003;29067;35.492;-97.520;2023-07-31T10:26:50;11;10;
43479;PMS5003;29067;35.492;-97.520;2023-07-31T10:29:20;12;12;
43479;PMS5003;29067;35.492;-97.520;2023-07-31T10:31:50;13;13;
43479;PMS5003;29067;35.492;-97.520;2023-07-31T10:34:23;14;14;
43479;PMS5003;29067;35.492;-97.520;2023-07-31T10:36:57;15;13;
43479;PMS5003;29067;35.492;-97.520;2023-07-31T10:39:54;13;12;
43479;PMS5003;29067;35.492;-97.520;2023-07-31T10:42:28;14;14;
43479;PMS5003;29067;35.492;-97.520;2023-07-31T10:44:58;13;12;
43479;PMS5003;29067;35.492;-97.520;2023-07-31T10:47:27;15;13;
43479;PMS5003;29067;35.492;-97.520;2023-07-31T10:50:12;15;13;
43479;PMS5003;29067;35.492;-97.520;2023-07-31T10:52:49;14;12;
43479;PMS5003;29067;35.492;-97.520;2023-07-31T10:55:27;14;13;
43479;PMS5003;29067;35.492;-97.520;2023-07-31T10:57:57;10;10;
43479;PMS5003;29067;35.492;-97.520;2023-07-31T11:03:02;12;10;
43479;PMS5003;29067;35.492;-97.520;2023-07-31T11:05:48;14;12;
43479;PMS5003;29067;35.492;-97.520;2023-07-31T11:08:18;13;12;
43479;PMS5003;29067;35.492;-97.520;2023-07-31T11:10:48;15;11;
43479;PMS5003;29067;35.492;-97.520;2023-07-31T11:13:17;15;12;
43479;PMS5003;29067;35.492;-97.520;2023-07-31T11:15:45;18;16;
43479;PMS5003;29067;35.492;-97.520;2023-07-31T11:18:13;14;12;
43479;PMS5003;29067;35.492;-97.520;2023-07-31T11:20:42;11;11;
43479;PMS5003;29067;35.492;-97.520;2023-07-31T11:23:10;15;13;
43479;PMS5003;29067;35.492;-97.520;2023-07-31T11:25:39;15;13;
43479;PMS5003;29067;35.492;-97.520;2023-07-31T11:28:08;16;13;
43479;PMS5003;29067;35.492;-97.520;2023-07-31T11:30:37;14;12;
43479;PMS5003;29067;35.492;-97.520;2023-07-31T11:33:06;14;12;
43479;PMS5003;29067;35.492;-97.520;2023-07-31T11:35:36;15;13;
43479;PMS5003;29067;35.492;-97.520;2023-07-31T11:38:09;15;13;
43479;PMS5003;29067;35.492;-97.520;2023-07-31T11:40:41;14;14;
43479;PMS5003;29067;35.492;-97.520;2023-07-31T11:43:10;12;11;
43479;PMS5003;29067;35.492;-97.520;2023-07-31T11:45:37;15;13;
43479;PMS5003;29067;35.492;-97.520;2023-07-31T11:48:07;17;13;
43479;PMS5003;29067;35.492;-97.520;2023-07-31T11:50:34;13;13;
43479;PMS5003;29067;35.492;-97.520;2023-07-31T11:53:04;14;11;
43479;PMS5003;29067;35.492;-97.520;2023-07-31T11:55:36;12;10;
43479;PMS5003;29067;35.492;-97.520;2023-07-31T11:58:04;14;13;
43479;PMS5003;29067;35.492;-97.520;2023-07-31T12:00:33;15;14;
43479;PMS5003;29067;35.492;-97.520;2023-07-31T12:03:02;14;13;
43479;PMS5003;29067;35.492;-97.520;2023-07-31T12:05:30;12;11;
43479;PMS5003;29067;35.492;-97.520;2023-07-31T12:07:58;12;11;
43479;PMS5003;29067;35.492;-97.520;2023-07-31T12:10:27;13;11;
43479;PMS5003;29067;35.492;-97.520;2023-07-31T12:12:58;14;12;
43479;PMS5003;29067;35.492;-97.520;2023-07-31T12:15:30;12;12;
43479;PMS5003;29067;35.492;-97.520;2023-07-31T12:18:00;11;11;
43479;PMS5003;29067;35.492;-97.520;2023-07-31T12:20:32;12;11;
43479;PMS5003;29067;35.492;-97.520;2023-07-31T12:23:02;15;13;
43479;PMS5003;29067;35.492;-97.520;2023-07-31T12:25:30;15;13;
43479;PMS5003;29067;35.492;-97.520;2023-07-31T12:28:03;11;10;
43479;PMS5003;29067;35.492;-97.520;2023-07-31T12:30:33;24;20;
43479;PMS5003;29067;35.492;-97.520;2023-07-31T12:33:05;25;19;
43479;PMS5003;29067;35.492;-97.520;2023-07-31T12:35:40;33;32;
43479;PMS5003;29067;35.492;-97.520;2023-07-31T12:38:10;30;28;
43479;PMS5003;29067;35.492;-97.520;2023-07-31T12:40:40;38;34;
43479;PMS5003;29067;35.492;-97.520;2023-07-31T12:43:09;28;28;
43479;PMS5003;29067;35.492;-97.520;2023-07-31T12:45:37;22;20;
43479;PMS5003;29067;35.492;-97.520;2023-07-31T12:48:05;61;60;
43479;PMS5003;29067;35.492;-97.520;2023-07-31T12:50:33;20;16;
43479;PMS5003;29067;35.492;-97.520;2023-07-31T12:53:01;36;34;
43479;PMS5003;29067;35.492;-97.520;2023-07-31T12:55:29;53;50;
43479;PMS5003;29067;35.492;-97.520;2023-07-31T12:57:56;25;23;
43479;PMS5003;29067;35.492;-97.520;2023-07-31T13:00:25;45;43;
43479;PMS5003;29067;35.492;-97.520;2023-07-31T13:02:53;24;23;
43479;PMS5003;29067;35.492;-97.520;2023-07-31T13:05:21;26;21;
43479;PMS5003;29067;35.492;-97.520;2023-07-31T13:07:49;28;25;
43479;PMS5003;29067;35.492;-97.520;2023-07-31T13:10:17;25;23;
43479;PMS5003;29067;35.492;-97.520;2023-07-31T13:12:46;27;22;
43479;PMS5003;29067;35.492;-97.520;2023-07-31T13:15:15;26;19;
43479;PMS5003;29067;35.492;-97.520;2023-07-31T13:17:42;20;17;
43479;PMS5003;29067;35.492;-97.520;2023-07-31T13:20:11;57;56;
43479;PMS5003;29067;35.492;-97.520;2023-07-31T13:22:39;23;20;
43479;PMS5003;29067;35.492;-97.520;2023-07-31T13:25:08;19;17;
43479;PMS5003;29067;35.492;-97.520;2023-07-31T13:27:36;21;17;
43479;PMS5003;29067;35.492;-97.520;2023-07-31T13:30:05;27;19;
43479;PMS5003;29067;35.492;-97.520;2023-07-31T13:32:34;21;20;
43479;PMS5003;29067;35.492;-97.520;2023-07-31T13:35:03;35;33;
43479;PMS5003;29067;35.492;-97.520;2023-07-31T13:37:31;24;22;
43479;PMS5003;29067;35.492;-97.520;2023-07-31T13:39:59;24;22;
43479;PMS5003;29067;35.492;-97.520;2023-07-31T13:42:27;32;25;
43479;PMS5003;29067;35.492;-97.520;2023-07-31T13:44:55;44;40;
43479;PMS5003;29067;35.492;-97.520;2023-07-31T13:47:24;20;16;
43479;PMS5003;29067;35.492;-97.520;2023-07-31T13:49:52;67;67;
43479;PMS5003;29067;35.492;-97.520;2023-07-31T13:52:19;24;24;
43479;PMS5003;29067;35.492;-97.520;2023-07-31T13:54:47;36;35;
43479;PMS5003;29067;35.492;-97.520;2023-07-31T13:57:15;13;11;
43479;PMS5003;29067;35.492;-97.520;2023-07-31T13:59:43;14;13;
43479;PMS5003;29067;35.492;-97.520;2023-07-31T14:02:11;12;12;
43479;PMS5003;29067;35.492;-97.520;2023-07-31T14:04:39;11;11;
43479;PMS5003;29067;35.492;-97.520;2023-07-31T14:07:08;14;13;
43479;PMS5003;29067;35.492;-97.520;2023-07-31T14:09:36;14;13;
43479;PMS5003;29067;35.492;-97.520;2023-07-31T14:12:05;15;13;
43479;PMS5003;29067;35.492;-97.520;2023-07-31T14:14:33;17;14;
43479;PMS5003;29067;35.492;-97.520;2023-07-31T14:17:01;16;15;
43479;PMS5003;29067;35.492;-97.520;2023-07-31T14:19:29;12;12;
43479;PMS5003;29067;35.492;-97.520;2023-07-31T14:21:58;12;11;
43479;PMS5003;29067;35.492;-97.520;2023-07-31T14:24:26;13;12;
43479;PMS5003;29067;35.492;-97.520;2023-07-31T14:26:55;16;13;
43479;PMS5003;29067;35.492;-97.520;2023-07-31T14:29:23;13;11;
43479;PMS5003;29067;35.492;-97.520;2023-07-31T14:31:51;9;9;
43479;PMS5003;29067;35.492;-97.520;2023-07-31T14:34:19;13;11;
43479;PMS5003;29067;35.492;-97.520;2023-07-31T14:36:48;15;12;
43479;PMS5003;29067;35.492;-97.520;2023-07-31T14:39:16;13;12;
43479;PMS5003;29067;35.492;-97.520;2023-07-31T14:41:44;17;15;
43479;PMS5003;29067;35.492;-97.520;2023-07-31T14:44:12;14;12;
43479;PMS5003;29067;35.492;-97.520;2023-07-31T14:46:40;15;12;
43479;PMS5003;29067;35.492;-97.520;2023-07-31T14:49:08;16;12;
43479;PMS5003;29067;35.492;-97.520;2023-07-31T14:51:37;14;13;
43479;PMS5003;29067;35.492;-97.520;2023-07-31T14:54:05;16;13;
43479;PMS5003;29067;35.492;-97.520;2023-07-31T14:56:33;12;11;
43479;PMS5003;29067;35.492;-97.520;2023-07-31T14:59:02;14;13;
43479;PMS5003;29067;35.492;-97.520;2023-07-31T15:01:30;16;13;
43479;PMS5003;29067;35.492;-97.520;2023-07-31T15:03:58;14;13;
43479;PMS5003;29067;35.492;-97.520;2023-07-31T15:06:26;10;9;
43479;PMS5003;29067;35.492;-97.520;2023-07-31T15:08:55;29;28;
43479;PMS5003;29067;35.492;-97.520;2023-07-31T15:11:23;55;52;
43479;PMS5003;29067;35.492;-97.520;2023-07-31T15:13:51;26;24;
43479;PMS5003;29067;35.492;-97.520;2023-07-31T15:16:19;19;19;
43479;PMS5003;29067;35.492;-97.520;2023-07-31T15:18:47;14;13;
43479;PMS5003;29067;35.492;-97.520;2023-07-31T15:21:15;13;13;
43479;PMS5003;29067;35.492;-97.520;2023-07-31T15:23:43;11;10;
43479;PMS5003;29067;35.492;-97.520;2023-07-31T15:26:12;13;11;
43479;PMS5003;29067;35.492;-97.520;2023-07-31T15:28:40;15;12;
43479;PMS5003;29067;35.492;-97.520;2023-07-31T15:31:08;11;10;
43479;PMS5003;29067;35.492;-97.520;2023-07-31T15:33:36;12;10;
43479;PMS5003;29067;35.492;-97.520;2023-07-31T15:36:04;18;15;
43479;PMS5003;29067;35.492;-97.520;2023-07-31T15:38:33;10;10;
43479;PMS5003;29067;35.492;-97.520;2023-07-31T15:41:01;12;11;
43479;PMS5003;29067;35.492;-97.520;2023-07-31T15:43:29;17;14;
43479;PMS5003;29067;35.492;-97.520;2023-07-31T15:45:57;11;10;
43479;PMS5003;29067;35.492;-97.520;2023-07-31T15:48:25;8;8;
43479;PMS5003;29067;35.492;-97.520;2023-07-31T15:50:53;10;10;
43479;PMS5003;29067;35.492;-97.520;2023-07-31T15:53:22;13;11;
43479;PMS5003;29067;35.492;-97.520;2023-07-31T15:55:50;12;10;
43479;PMS5003;29067;35.492;-97.520;2023-07-31T15:58:18;10;9;
43479;PMS5003;29067;35.492;-97.520;2023-07-31T16:00:46;9;9;
43479;PMS5003;29067;35.492;-97.520;2023-07-31T16:03:15;17;12;